Aeroporto :
LOGIN :

Iscrizione | Disclaimer

   EN    FR    IT 

 










Sommario :    VFR   VFR Marginale   IFR   IFR Intensivo   IFR Molto Intensivo
Visibilità : 
Base nubi : 
>= 8 km
>= 3000ft
5 / 8 km
1000 / 3000 ft
1500m / 5 km
500 / 1000 ft
800 / 1500m
200 / 500 ft
< 800m
< 200 ft
Simboli :   Temporali  Nebbia  Neve Forte  Precipitazioni Forti  Vento > 20 kt
SIGMETs :   Varie  Temporali  Ghiacco  Turbolenza  Onda orograficha  Ceneri Vulcaniche






- Altitudine del aeroporto : 52 ft
- Codice IATA : RNN


EKRN - Bornholm Ronne

ULTIMO METAR :
  • 081050Z AUTO 18014KT 160V230 9999 NCD 11/M00 Q1029

METARs OBSOLETI :
  • 081020Z AUTO 17013KT 9999 FEW002/// 10/M00 Q1029
  • 080950Z AUTO 17011KT 9999 NCD 10/00 Q1030
  • 080920Z AUTO 16010KT 9999 NCD 09/02 Q1030
  • 080850Z AUTO 16011KT 9999 NCD 09/01 Q1031
  • 080820Z AUTO 16011KT 120V210 9999 NCD 10/01 Q1031

TAF TAF EKRN
Valido dal 08 a 09 ore il 08 a 18 ore UTC


080823Z 0809/0818 16010KT CAVOK



MetMap, La meteo Aeronautica in un colpo d'occhio ! - Copyright ORBIFLY Dicembre 2007 - Disclaimer

ORBIFLY MET'MAP TEAM :

Programmazione e sviluppo : Alexandra Zaïnal
Concezione : Baudouin d'Aumeries
Aiuto per la programmazione : Marc-Olivier Méhu
Supporto tecnico e logistico : Manuel Goepfert
Aiuto per la traduzione : Arnaldo La Scala

Contatto : metmap@orbifly.com




FONTI E CREDITI :

   NOAA